createdAt,value
2018-12-22T00:03:20.340Z,5.13
2018-12-22T00:08:23.417Z,5.57
2018-12-22T00:13:26.485Z,5.60
2018-12-22T00:18:29.596Z,5.57
2018-12-22T00:23:32.702Z,4.83
2018-12-22T00:28:35.775Z,5.72
2018-12-22T00:33:38.852Z,5.60
2018-12-22T00:38:41.934Z,5.03
2018-12-22T00:43:45.097Z,4.83
2018-12-22T00:48:49.017Z,4.80
2018-12-22T00:53:52.098Z,4.73
2018-12-22T00:58:55.251Z,5.20
2018-12-22T01:03:58.329Z,5.07
2018-12-22T01:09:01.411Z,5.00
2018-12-22T01:14:04.586Z,4.87
2018-12-22T01:19:07.666Z,4.30
2018-12-22T01:24:10.764Z,5.27
2018-12-22T01:29:13.924Z,4.85
2018-12-22T01:34:17.006Z,4.90
2018-12-22T01:39:20.081Z,4.17
2018-12-22T01:44:23.240Z,4.70
2018-12-22T01:49:26.593Z,5.20
2018-12-22T01:54:29.757Z,5.57
2018-12-22T01:59:33.032Z,4.27
2018-12-22T02:04:36.106Z,4.93
2018-12-22T02:09:39.172Z,5.00
2018-12-22T02:14:42.252Z,4.27
2018-12-22T02:19:45.329Z,4.50
2018-12-22T02:24:48.444Z,4.73
2018-12-22T02:29:51.522Z,4.63
2018-12-22T02:34:54.633Z,4.43
2018-12-22T02:39:57.852Z,4.70
2018-12-22T02:45:01.008Z,5.12
2018-12-22T02:50:06.101Z,4.83
2018-12-22T02:55:09.262Z,4.90
2018-12-22T03:00:12.356Z,4.33
2018-12-22T03:05:15.489Z,4.90
2018-12-22T03:10:18.588Z,4.83
2018-12-22T03:15:21.699Z,4.67
2018-12-22T03:20:24.852Z,4.83
2018-12-22T03:25:27.925Z,4.97
2018-12-22T03:30:31.114Z,5.50
2018-12-22T03:35:34.263Z,4.73
2018-12-22T03:40:37.340Z,4.73
2018-12-22T03:45:40.518Z,4.73
2018-12-22T03:50:43.728Z,3.73
2018-12-22T03:55:46.804Z,4.27
2018-12-22T04:00:49.877Z,3.85
2018-12-22T04:05:52.982Z,3.03
2018-12-22T04:10:56.055Z,3.03
2018-12-22T04:15:59.240Z,3.00
2018-12-22T04:21:02.399Z,2.50
2018-12-22T04:26:05.552Z,2.00
2018-12-22T04:31:08.624Z,1.67
2018-12-22T04:36:11.717Z,1.70
2018-12-22T04:41:14.911Z,1.60
2018-12-22T04:46:18.047Z,1.77
2018-12-22T04:51:21.147Z,1.77
2018-12-22T04:56:24.210Z,2.33
2018-12-22T05:01:27.322Z,1.70
2018-12-22T05:06:30.431Z,2.13
2018-12-22T05:11:33.522Z,2.63
2018-12-22T05:16:36.611Z,2.43
2018-12-22T05:21:39.674Z,2.60
2018-12-22T05:26:42.763Z,2.70
2018-12-22T05:31:45.921Z,2.67
2018-12-22T05:36:49.013Z,2.80
2018-12-22T05:41:52.126Z,2.10
2018-12-22T05:46:55.198Z,2.07
2018-12-22T05:51:58.461Z,2.13
2018-12-22T05:57:01.526Z,2.20
2018-12-22T06:02:04.667Z,2.17
2018-12-22T06:07:07.757Z,2.57
2018-12-22T06:12:10.833Z,2.17
2018-12-22T06:17:13.933Z,2.87
2018-12-22T06:22:17.007Z,2.53
2018-12-22T06:27:20.144Z,2.53
2018-12-22T06:32:23.205Z,2.50
2018-12-22T06:37:26.290Z,3.00
2018-12-22T06:42:29.357Z,2.57
2018-12-22T06:47:32.459Z,2.30
2018-12-22T06:52:35.496Z,2.43
2018-12-22T06:57:38.589Z,2.23
2018-12-22T07:02:41.689Z,2.23
2018-12-22T07:07:44.841Z,2.57
2018-12-22T07:12:47.902Z,2.10
2018-12-22T07:17:50.967Z,1.20
2018-12-22T07:22:54.052Z,1.22
2018-12-22T07:27:57.113Z,1.00
2018-12-22T07:33:00.206Z,1.00
2018-12-22T07:38:03.322Z,1.20
2018-12-22T07:43:06.397Z,1.70
2018-12-22T07:48:09.445Z,1.70
2018-12-22T07:53:12.542Z,1.63
2018-12-22T07:58:15.624Z,2.53
2018-12-22T08:03:18.722Z,2.17
2018-12-22T08:08:23.645Z,2.20
2018-12-22T08:13:26.862Z,2.87
2018-12-22T08:18:29.980Z,2.90
2018-12-22T08:23:33.101Z,2.52
2018-12-22T08:28:36.165Z,2.83
2018-12-22T08:33:39.313Z,2.27
2018-12-22T08:38:42.415Z,2.60
2018-12-22T08:43:45.562Z,3.10
2018-12-22T08:48:48.631Z,2.40
2018-12-22T08:53:51.701Z,2.23
2018-12-22T08:58:54.808Z,2.30
2018-12-22T09:03:57.874Z,2.10
2018-12-22T09:09:00.984Z,2.57
2018-12-22T09:14:04.117Z,2.60
2018-12-22T09:19:07.196Z,2.30
2018-12-22T09:24:10.307Z,2.40
2018-12-22T09:29:13.480Z,2.30
2018-12-22T09:34:16.574Z,1.90
2018-12-22T09:39:19.666Z,2.30
2018-12-22T09:44:22.731Z,2.67
2018-12-22T09:49:25.897Z,2.67
2018-12-22T09:54:28.981Z,2.80
2018-12-22T09:59:32.046Z,3.02
2018-12-22T10:04:35.130Z,3.37
2018-12-22T10:09:38.216Z,3.55
2018-12-22T10:14:41.304Z,3.83
2018-12-22T10:19:44.472Z,5.70
2018-12-22T10:24:47.541Z,4.67
2018-12-22T10:29:50.618Z,9.13
2018-12-22T10:35:12.320Z,5.40
2018-12-22T10:40:15.409Z,4.70
2018-12-22T10:45:18.485Z,4.23
2018-12-22T10:50:21.678Z,4.13
2018-12-22T10:55:24.824Z,4.33
2018-12-22T11:00:27.953Z,3.63
2018-12-22T11:05:31.049Z,4.27
2018-12-22T11:10:34.206Z,3.42
2018-12-22T11:15:37.322Z,3.30
2018-12-22T11:20:40.391Z,3.20
2018-12-22T11:25:43.509Z,3.22
2018-12-22T11:30:46.931Z,3.10
2018-12-22T11:35:50.113Z,3.17
2018-12-22T11:40:53.202Z,3.70
2018-12-22T11:45:56.293Z,3.53
2018-12-22T11:50:59.506Z,3.17
2018-12-22T11:56:02.603Z,3.20
2018-12-22T12:01:05.685Z,3.03
2018-12-22T12:06:08.781Z,2.72
2018-12-22T12:11:11.889Z,3.27
2018-12-22T12:16:17.332Z,2.33
2018-12-22T12:21:20.426Z,2.80
2018-12-22T12:26:23.506Z,2.40
2018-12-22T12:31:26.670Z,2.40
2018-12-22T12:36:29.770Z,2.80
2018-12-22T12:41:32.925Z,3.00
2018-12-22T12:46:36.125Z,2.90
2018-12-22T12:51:39.558Z,2.50
2018-12-22T12:56:42.709Z,2.80
2018-12-22T13:01:45.801Z,2.53
2018-12-22T13:06:49.002Z,2.80
2018-12-22T13:11:52.143Z,2.98
2018-12-22T13:16:55.234Z,2.63
2018-12-22T13:21:58.369Z,2.73
2018-12-22T13:27:01.489Z,2.90
2018-12-22T13:32:09.585Z,2.67
2018-12-22T13:37:09.685Z,2.60
2018-12-22T13:42:12.782Z,2.67
2018-12-22T13:47:16.069Z,2.80
2018-12-22T13:52:19.154Z,2.73
2018-12-22T13:57:22.240Z,2.55
2018-12-22T14:02:25.377Z,2.90
2018-12-22T14:07:28.521Z,3.27
2018-12-22T14:12:31.628Z,2.90
2018-12-22T14:17:34.990Z,3.33
2018-12-22T14:22:38.219Z,3.07
2018-12-22T14:27:41.335Z,3.67
2018-12-22T14:32:44.445Z,2.90
2018-12-22T14:37:47.529Z,2.80
2018-12-22T14:42:50.672Z,2.97
2018-12-22T14:47:53.953Z,3.13
2018-12-22T14:52:57.043Z,3.23
2018-12-22T14:58:01.910Z,2.95
2018-12-22T15:03:05.025Z,3.00
2018-12-22T15:08:08.113Z,3.03
2018-12-22T15:13:11.229Z,3.00
2018-12-22T15:18:15.373Z,3.00
2018-12-22T15:23:18.461Z,3.53
2018-12-22T15:28:21.599Z,3.07
2018-12-22T15:33:24.712Z,3.67
2018-12-22T15:38:27.811Z,3.73
2018-12-22T15:43:30.977Z,3.60
2018-12-22T15:48:34.123Z,3.50
2018-12-22T15:53:37.217Z,4.17
2018-12-22T15:58:40.345Z,3.63
2018-12-22T16:03:43.506Z,3.97
2018-12-22T16:08:46.638Z,3.87
2018-12-22T16:13:49.727Z,4.13
2018-12-22T16:18:52.846Z,4.20
2018-12-22T16:23:55.931Z,4.07
2018-12-22T16:29:01.313Z,4.10
2018-12-22T16:34:04.477Z,4.20
2018-12-22T16:39:07.646Z,4.23
2018-12-22T16:44:10.804Z,4.30
2018-12-22T16:49:13.905Z,4.10
2018-12-22T16:54:16.993Z,4.13
2018-12-22T16:59:20.138Z,4.43
2018-12-22T17:04:23.219Z,4.17
2018-12-22T17:09:26.331Z,5.33
2018-12-22T17:14:29.457Z,5.00
2018-12-22T17:19:32.645Z,5.20
2018-12-22T17:24:36.015Z,5.27
2018-12-22T17:29:39.112Z,4.80
2018-12-22T17:34:42.222Z,5.53
2018-12-22T17:39:45.435Z,5.07
2018-12-22T17:44:48.524Z,4.40
2018-12-22T17:49:51.646Z,5.13
2018-12-22T17:54:54.728Z,5.40
2018-12-22T17:59:57.909Z,4.57
2018-12-22T18:05:00.997Z,4.30
2018-12-22T18:10:10.986Z,4.90
2018-12-22T18:15:22.227Z,4.70
2018-12-22T18:20:25.298Z,4.50
2018-12-22T18:25:28.456Z,4.80
2018-12-22T18:30:31.573Z,4.53
2018-12-22T18:35:34.709Z,4.97
2018-12-22T18:40:37.896Z,4.93
2018-12-22T18:45:41.104Z,5.90
2018-12-22T18:50:44.287Z,5.07
2018-12-22T18:55:47.377Z,5.23
2018-12-22T19:00:50.468Z,5.63
2018-12-22T19:05:53.636Z,5.40
2018-12-22T19:10:56.727Z,5.20
2018-12-22T19:15:59.837Z,5.77
2018-12-22T19:21:02.945Z,5.80
2018-12-22T19:26:06.066Z,5.80
2018-12-22T19:31:09.153Z,5.73
2018-12-22T19:36:12.338Z,6.47
2018-12-22T19:41:15.421Z,6.28
2018-12-22T19:46:18.511Z,6.83
2018-12-22T19:51:21.601Z,5.90
2018-12-22T19:56:24.718Z,5.97
2018-12-22T20:01:27.887Z,6.13
2018-12-22T20:06:31.025Z,6.77
2018-12-22T20:11:34.114Z,6.67
2018-12-22T20:16:37.216Z,6.42
2018-12-22T20:21:40.300Z,5.40
2018-12-22T20:26:43.480Z,5.93
2018-12-22T20:31:46.588Z,6.67
2018-12-22T20:36:49.753Z,5.53
2018-12-22T20:41:52.888Z,5.40
2018-12-22T20:46:55.981Z,5.70
2018-12-22T20:51:59.129Z,5.63
2018-12-22T20:57:02.227Z,5.50
2018-12-22T21:02:06.040Z,5.10
2018-12-22T21:07:09.117Z,5.77
2018-12-22T21:12:12.213Z,5.97
2018-12-22T21:17:15.303Z,5.30
2018-12-22T21:22:18.393Z,5.25
2018-12-22T21:27:21.483Z,5.53
2018-12-22T21:32:24.652Z,4.67
2018-12-22T21:37:27.765Z,5.13
2018-12-22T21:42:30.839Z,5.23
2018-12-22T21:47:33.933Z,5.00
2018-12-22T21:52:37.091Z,4.60
2018-12-22T21:57:40.301Z,4.67
2018-12-22T22:02:43.409Z,4.30
2018-12-22T22:07:46.474Z,5.70
2018-12-22T22:12:49.561Z,4.62
2018-12-22T22:17:52.653Z,5.27
2018-12-22T22:22:55.737Z,5.03
2018-12-22T22:27:58.842Z,5.60
2018-12-22T22:33:01.927Z,5.07
2018-12-22T22:38:05.025Z,5.50
2018-12-22T22:43:08.101Z,5.23
2018-12-22T22:48:11.280Z,5.10
2018-12-22T22:53:14.441Z,4.23
2018-12-22T22:58:17.533Z,5.53
2018-12-22T23:03:20.630Z,5.12
2018-12-22T23:08:23.703Z,5.10
2018-12-22T23:13:26.786Z,4.80
2018-12-22T23:18:29.887Z,4.90
2018-12-22T23:23:32.943Z,4.97
2018-12-22T23:28:36.084Z,4.80
2018-12-22T23:33:39.321Z,4.07
2018-12-22T23:38:42.412Z,4.73
2018-12-22T23:43:45.486Z,4.23
2018-12-22T23:48:48.551Z,4.07
2018-12-22T23:53:51.626Z,4.70
2018-12-22T23:58:54.754Z,4.80
